Guest
แชร์ หัวข้อ โพสต์โดย อ่าน ตอบ โพสต์ล่าสุด
[ซื้อ] ตั้งรับ Sony Walkman A35 ครับ
phot1976 75 1 16/07/2017 10:33:21
ขายหูฟัง iSine20 สภาพแกะกล่อง อายุ 6 วัน
drizzyman28 520 12 16/07/2017 10:11:11
บารอน 672 5 16/07/2017 09:55:37
ขาย set ifi usb + สาย usb diamond 1.5m
qercer 1,619 13 16/07/2017 08:52:17
santi.ca 556 1 16/07/2017 08:30:02
หา JVC ha-fx1200 มือสองครับ
Palatip1730 189 1 16/07/2017 08:04:36
((ขาย)) สลายกรุกราโด้อีกรอบ PS5
Somchild02@gmai... 4 0 16/07/2017 07:59:05
santi.ca 863 2 16/07/2017 07:55:14
Bluesky1 569 1 15/07/2017 23:55:25
pingstudio 1,364 13 15/07/2017 23:40:48
บารอน 910 4 15/07/2017 23:34:19
oupakarn 551 0 15/07/2017 21:48:03
ขายหูฟั
drizzyman28 4 0 15/07/2017 21:47:57
ขออนุญาตเฮียขาย Lotoo Pawgold 59,000 บาท แถม case 4000-SD512GB 12,000
virat137 706 16 15/07/2017 21:44:20
case 360 0 15/07/2017 20:07:32
ขออนุญาติเฮีย ขายหูฟัง Full Size Sony ZX770BN
LifeFreedom 308 10 15/07/2017 19:52:41
ขาย Kinera bd005 สีเทา, หูฟังออนเอียร์ Beyerdynamic DTX501p, SPIN FIT CP100 size L, จุก JVC spiral dot size L
khun_top 573 13 15/07/2017 19:49:09
Kordon2 1,230 8 15/07/2017 19:41:19
blurryeyez 1,361 9 15/07/2017 19:36:07
opps 928 3 15/07/2017 19:22:55
ขาย HD800 (อายุ<2เดือน) พร้อมสาย Nordost Heimdell 2 (อายุ<2สัปดาห์) รวม 42000 บาท
MJP 178 6 15/07/2017 17:27:46
ขาย westone am pro 30
Pawarit 695 2 15/07/2017 16:52:21
ขาย : หูฟังไร้สาย Bose SoundSport Pulse มีตรวจจับ Heart Rate [ของใหม่]
Birdhappii 428 4 15/07/2017 15:49:13
siamb33 723 7 15/07/2017 15:32:30
arunwongdotw 2,031 26 15/07/2017 14:33:39
yoknacrab 647 5 15/07/2017 13:00:12
item-one 1,678 5 15/07/2017 12:29:53
lordrayza 368 0 15/07/2017 12:00:21
Jirasak252 1,038 7 15/07/2017 11:17:39
WTS: wattgate381gold, JPS inwall 13ฟุต , Fuseholder hifituning
qercer 493 7 15/07/2017 11:12:19
gase47323 395 0 15/07/2017 11:09:27
((FS)) ขาย AK240 Gold Edition + Opus Metal + B&O Hifi Dac
Somchild02@gmai... 3,693 161 15/07/2017 10:32:40
Sale Focal bluetooth wireless reciver
Joke_bbl 681 14 15/07/2017 10:25:19
ขาย PK1 และ Amp Fiio A5 , M2M ของใหม่มาก ประกันเหลือเกือบปี
4happyday 281 5 15/07/2017 09:30:50
Nattichet 3,139 41 15/07/2017 07:01:50
หูฟัง Bluetooth Aftershokz Trekz Titanium สีเขียว ของใหม่ 100%
twinbaby 462 8 15/07/2017 04:30:25
[FS] ขาย สาย Beat Prima donna ถัก 4 ขั้ว 2 Pin Jack 2.5 balanced
บารอน 1,017 25 15/07/2017 04:12:31
2.ขาย Sony ZX2 ประกันยาวๆ ถึง ม.ค.61
donnadonna 244 0 15/07/2017 02:54:12
อินทีเกรทแอมป์ Lepy LP838 2.1CH
santikan 158 3 14/07/2017 23:45:47
Thanapat 1,093 9 14/07/2017 23:05:26
จิมมี่ 551 1 14/07/2017 22:13:00
บารอน 1,449 25 14/07/2017 22:05:50
[ WTB ] ตามหา UE 900s สภาพดีซักตัวครับ
gase47323 109 0 14/07/2017 20:31:35
Ninja 834 3 14/07/2017 17:35:31
ปล่อย JDS LABS Objective 2 ราคา 2490 (มีประกัน) หรือ ซื้อยกเซ็ท (รวม ODAC REV B + สาย Audioquest 2 เส้น) ราคา 4980 บาทครับ
กฤตภัค 53 0 14/07/2017 17:15:11
ขายหูฟัง sennheiser ie800 ราคา 12000 บาท
kantapong 130 6 14/07/2017 17:03:53
Kommon 397 1 14/07/2017 16:37:40
((FS)) ขาย HIFIMAN HM901 พร้อม Balance Card
Somchild02@gmai... 1,456 31 14/07/2017 16:26:05
Wisanu.s 727 0 14/07/2017 16:21:49
lupang 849 9 14/07/2017 16:18:14
38,601 - 38,650 of 183,163 items : << 768769770771772773774775776777778 >>

ช่องทางการติดต่ออื่น

  • Munkonggadget
  • Munkonggadget Reviews
  • Munkonggadget Reviews
  • Munkonggadget Contact Us